createdAt,value
2022-08-07T00:00:25.977Z,19.50
2022-08-07T00:02:53.751Z,19.50
2022-08-07T00:05:23.683Z,19.50
2022-08-07T00:07:58.232Z,19.50
2022-08-07T00:10:30.920Z,19.40
2022-08-07T00:13:09.643Z,19.10
2022-08-07T00:15:51.875Z,18.80
2022-08-07T00:18:24.255Z,18.60
2022-08-07T00:20:56.725Z,18.70
2022-08-07T00:23:24.983Z,18.80
2022-08-07T00:25:59.205Z,18.90
2022-08-07T00:28:31.571Z,18.90
2022-08-07T00:31:12.446Z,18.90
2022-08-07T00:33:43.578Z,19.00
2022-08-07T00:36:14.589Z,19.00
2022-08-07T00:38:43.810Z,19.00
2022-08-07T00:41:14.714Z,19.00
2022-08-07T00:43:59.298Z,19.10
2022-08-07T00:46:30.161Z,19.10
2022-08-07T00:49:03.851Z,19.10
2022-08-07T00:51:56.909Z,19.10
2022-08-07T00:54:19.918Z,19.10
2022-08-07T00:56:49.908Z,19.10
2022-08-07T00:59:20.018Z,19.00
2022-08-07T01:01:59.529Z,19.00
2022-08-07T01:04:26.478Z,19.00
2022-08-07T01:06:57.697Z,19.00
2022-08-07T01:10:06.783Z,19.00
2022-08-07T01:12:30.177Z,18.90
2022-08-07T01:15:01.070Z,18.90
2022-08-07T01:17:31.955Z,18.90
2022-08-07T01:20:10.020Z,18.90
2022-08-07T01:22:53.993Z,18.80
2022-08-07T01:25:55.146Z,18.70
2022-08-07T01:28:20.144Z,18.70
2022-08-07T01:30:51.253Z,18.60
2022-08-07T01:33:20.026Z,18.60
2022-08-07T01:38:25.880Z,18.60
2022-08-07T01:41:02.431Z,18.60
2022-08-07T01:43:34.552Z,18.60
2022-08-07T01:46:08.153Z,18.60
2022-08-07T01:48:42.117Z,18.60
2022-08-07T01:52:01.663Z,18.60
2022-08-07T01:54:32.608Z,18.60
2022-08-07T01:57:20.693Z,18.60
2022-08-07T02:00:00.535Z,18.50
2022-08-07T02:03:18.524Z,18.50
2022-08-07T02:05:47.566Z,18.50
2022-08-07T02:08:23.814Z,18.50
2022-08-07T02:10:55.028Z,18.40
2022-08-07T02:13:59.816Z,18.40
2022-08-07T02:16:19.760Z,18.40
2022-08-07T02:18:51.276Z,18.30
2022-08-07T02:21:20.069Z,18.30
2022-08-07T02:23:49.313Z,18.30
2022-08-07T02:26:33.857Z,18.30
2022-08-07T02:29:05.595Z,18.30
2022-08-07T02:31:42.117Z,18.00
2022-08-07T02:34:11.461Z,17.10
2022-08-07T02:36:52.188Z,16.30
2022-08-07T02:39:43.383Z,15.50
2022-08-07T02:42:16.294Z,15.00
2022-08-07T02:44:50.118Z,14.50
2022-08-07T02:47:23.613Z,14.20
2022-08-07T02:49:59.613Z,14.00
2022-08-07T02:52:37.448Z,13.70
2022-08-07T02:55:27.508Z,13.40
2022-08-07T02:58:07.918Z,13.20
2022-08-07T03:00:40.737Z,13.10
2022-08-07T03:03:22.628Z,13.00
2022-08-07T03:05:53.569Z,12.90
2022-08-07T03:08:26.869Z,12.80
2022-08-07T03:10:59.152Z,12.80
2022-08-07T03:13:38.746Z,12.70
2022-08-07T03:16:08.439Z,12.70
2022-08-07T03:18:36.551Z,12.70
2022-08-07T03:21:08.648Z,12.60
2022-08-07T03:24:18.132Z,12.60
2022-08-07T03:26:32.141Z,12.60
2022-08-07T03:29:05.276Z,12.50
2022-08-07T03:31:42.615Z,12.50
2022-08-07T03:34:18.601Z,12.50
2022-08-07T03:36:54.308Z,12.50
2022-08-07T03:39:46.155Z,12.50
2022-08-07T03:42:14.509Z,12.50
2022-08-07T03:44:42.365Z,12.40
2022-08-07T03:47:15.256Z,12.30
2022-08-07T03:49:48.041Z,12.20
2022-08-07T03:52:26.120Z,12.10
2022-08-07T03:55:06.453Z,12.00
2022-08-07T03:58:33.954Z,12.00
2022-08-07T04:00:33.808Z,11.90
2022-08-07T04:03:04.788Z,11.90
2022-08-07T04:05:40.491Z,11.90
2022-08-07T04:08:15.841Z,11.80
2022-08-07T04:10:54.635Z,11.80
2022-08-07T04:14:10.184Z,11.80
2022-08-07T04:16:31.499Z,11.80
2022-08-07T04:19:04.340Z,11.80
2022-08-07T04:21:58.815Z,11.80
2022-08-07T04:24:34.125Z,11.80
2022-08-07T04:27:15.089Z,11.80
2022-08-07T04:30:01.181Z,11.70
2022-08-07T04:32:48.427Z,11.70
2022-08-07T04:35:26.435Z,11.60
2022-08-07T04:38:03.552Z,11.60
2022-08-07T04:40:44.068Z,11.40
2022-08-07T04:44:12.365Z,11.40
2022-08-07T04:46:59.530Z,11.50
2022-08-07T04:50:04.211Z,11.50
2022-08-07T04:52:51.996Z,11.50
2022-08-07T04:58:12.320Z,11.60
2022-08-07T05:02:02.418Z,11.90
2022-08-07T05:04:50.457Z,12.00
2022-08-07T05:07:29.165Z,12.00
2022-08-07T05:10:07.808Z,12.10
2022-08-07T05:12:52.763Z,12.30
2022-08-07T05:15:35.884Z,12.50
2022-08-07T05:18:10.445Z,12.70
2022-08-07T05:20:45.998Z,12.90
2022-08-07T05:23:20.580Z,13.00
2022-08-07T05:26:13.518Z,13.20
2022-08-07T05:28:50.197Z,13.40
2022-08-07T05:31:24.568Z,13.50
2022-08-07T05:34:04.731Z,13.70
2022-08-07T05:36:39.349Z,13.90
2022-08-07T05:40:07.112Z,14.00
2022-08-07T05:42:10.156Z,14.20
2022-08-07T05:44:46.553Z,14.30
2022-08-07T05:47:37.854Z,14.50
2022-08-07T05:50:10.193Z,14.70
2022-08-07T05:52:37.386Z,14.90
2022-08-07T05:55:10.895Z,15.10
2022-08-07T05:57:42.853Z,15.30
2022-08-07T06:00:16.480Z,15.50
2022-08-07T06:02:53.198Z,15.60
2022-08-07T06:05:28.543Z,15.70
2022-08-07T06:08:14.294Z,15.80
2022-08-07T06:10:51.272Z,16.00
2022-08-07T06:14:10.689Z,16.20
2022-08-07T06:16:13.229Z,16.20
2022-08-07T06:18:42.962Z,16.20
2022-08-07T06:22:16.133Z,16.30
2022-08-07T06:24:46.257Z,16.50
2022-08-07T06:26:47.236Z,16.70
2022-08-07T06:29:14.725Z,16.90
2022-08-07T06:31:49.720Z,17.10
2022-08-07T06:34:20.795Z,17.30
2022-08-07T06:36:51.809Z,17.40
2022-08-07T06:40:16.057Z,17.60
2022-08-07T06:42:37.149Z,17.70
2022-08-07T06:45:25.472Z,17.80
2022-08-07T06:47:58.484Z,17.90
2022-08-07T06:50:43.325Z,17.90
2022-08-07T06:53:18.572Z,18.00
2022-08-07T06:56:07.486Z,18.20
2022-08-07T07:00:11.913Z,18.30
2022-08-07T07:01:44.079Z,18.40
2022-08-07T07:04:32.343Z,18.50
2022-08-07T07:07:02.413Z,18.60
2022-08-07T07:09:47.246Z,18.80
2022-08-07T07:12:48.745Z,18.80
2022-08-07T07:15:32.564Z,18.70
2022-08-07T07:18:14.666Z,18.80
2022-08-07T07:21:13.610Z,19.00
2022-08-07T07:24:06.212Z,19.20
2022-08-07T07:26:38.024Z,19.40
2022-08-07T07:29:56.396Z,19.70
2022-08-07T07:32:10.397Z,19.90
2022-08-07T07:34:43.942Z,20.00
2022-08-07T07:37:21.848Z,20.10
2022-08-07T07:40:10.401Z,20.10
2022-08-07T07:42:51.060Z,20.20
2022-08-07T07:46:38.199Z,20.30
2022-08-07T07:48:34.847Z,20.50
2022-08-07T07:51:07.940Z,20.60
2022-08-07T07:53:44.629Z,20.60
2022-08-07T07:56:30.458Z,20.50
2022-08-07T07:59:02.198Z,20.60
2022-08-07T08:02:03.512Z,20.60
2022-08-07T08:04:20.303Z,20.80
2022-08-07T08:06:54.367Z,21.00
2022-08-07T08:09:29.230Z,21.20
2022-08-07T08:12:02.577Z,21.50
2022-08-07T08:14:36.200Z,21.60
2022-08-07T08:17:56.614Z,21.70
2022-08-07T08:20:17.303Z,21.90
2022-08-07T08:23:10.426Z,22.00
2022-08-07T08:26:04.579Z,22.10
2022-08-07T08:28:44.866Z,22.10
2022-08-07T08:31:30.205Z,22.50
2022-08-07T08:34:09.718Z,22.80
2022-08-07T08:36:41.218Z,22.80
2022-08-07T08:39:15.420Z,22.70
2022-08-07T08:41:59.387Z,22.60
2022-08-07T08:45:05.958Z,22.60
2022-08-07T08:48:10.680Z,22.70
2022-08-07T08:50:45.214Z,22.90
2022-08-07T08:53:26.459Z,23.20
2022-08-07T08:56:06.403Z,23.50
2022-08-07T08:58:54.303Z,23.80
2022-08-07T09:01:43.924Z,24.10
2022-08-07T09:04:30.355Z,24.20
2022-08-07T09:07:45.926Z,24.00
2022-08-07T09:10:28.233Z,24.20
2022-08-07T09:13:18.915Z,24.30
2022-08-07T09:16:25.228Z,24.20
2022-08-07T09:18:58.455Z,24.20
2022-08-07T09:21:34.306Z,24.20
2022-08-07T09:24:55.099Z,24.30
2022-08-07T09:28:01.219Z,24.40
2022-08-07T09:31:01.535Z,24.60
2022-08-07T09:34:00.510Z,24.40
2022-08-07T09:36:43.087Z,24.00
2022-08-07T09:39:54.794Z,24.20
2022-08-07T09:42:38.812Z,24.50
2022-08-07T09:47:24.545Z,24.80
2022-08-07T09:50:02.933Z,24.70
2022-08-07T09:52:16.639Z,25.00
2022-08-07T09:55:29.063Z,25.40
2022-08-07T09:58:18.757Z,25.40
2022-08-07T10:01:51.245Z,25.20
2022-08-07T10:04:32.769Z,24.70
2022-08-07T10:07:53.644Z,24.10
2022-08-07T10:11:59.222Z,24.00
2022-08-07T10:14:30.139Z,24.50
2022-08-07T10:17:18.698Z,24.80
2022-08-07T10:20:32.241Z,24.90
2022-08-07T10:24:05.281Z,25.10
2022-08-07T10:27:06.683Z,25.00
2022-08-07T10:30:06.511Z,24.90
2022-08-07T10:33:15.346Z,25.10
2022-08-07T10:36:12.975Z,25.30
2022-08-07T10:39:06.083Z,25.30
2022-08-07T10:42:00.411Z,25.10
2022-08-07T10:45:01.562Z,25.30
2022-08-07T10:48:09.716Z,25.60
2022-08-07T10:50:50.418Z,25.80
2022-08-07T10:54:12.210Z,26.00
2022-08-07T10:57:07.358Z,26.30
2022-08-07T11:00:04.731Z,26.60
2022-08-07T11:02:42.413Z,26.90
2022-08-07T11:05:35.667Z,27.30
2022-08-07T11:08:45.825Z,27.30
2022-08-07T11:12:02.382Z,27.50
2022-08-07T11:15:03.220Z,27.40
2022-08-07T11:17:48.569Z,27.40
2022-08-07T11:20:24.610Z,27.10
2022-08-07T11:23:26.178Z,26.80
2022-08-07T11:26:06.709Z,26.50
2022-08-07T11:28:53.420Z,26.60
2022-08-07T11:31:37.627Z,26.70
2022-08-07T11:34:29.644Z,26.80
2022-08-07T11:37:24.332Z,27.00
2022-08-07T11:40:39.464Z,27.20
2022-08-07T11:43:16.726Z,27.70
2022-08-07T11:46:48.778Z,27.70
2022-08-07T11:50:18.741Z,27.90
2022-08-07T11:53:25.338Z,28.20
2022-08-07T11:56:27.555Z,28.30
2022-08-07T12:00:12.652Z,28.50
2022-08-07T12:02:55.403Z,28.70
2022-08-07T12:05:48.885Z,28.70
2022-08-07T12:08:34.735Z,28.30
2022-08-07T12:11:22.468Z,28.10
2022-08-07T12:14:02.098Z,28.20
2022-08-07T12:16:35.326Z,28.10
2022-08-07T12:19:35.361Z,28.10
2022-08-07T12:23:02.366Z,28.00
2022-08-07T12:26:05.989Z,28.20
2022-08-07T12:29:38.401Z,28.60
2022-08-07T12:32:42.589Z,28.70
2022-08-07T12:35:13.617Z,28.80
2022-08-07T12:38:09.805Z,28.90
2022-08-07T12:40:47.446Z,29.20
2022-08-07T12:44:02.378Z,29.50
2022-08-07T12:46:58.113Z,29.70
2022-08-07T12:50:38.460Z,29.80
2022-08-07T12:53:19.197Z,29.00
2022-08-07T12:56:09.784Z,28.20
2022-08-07T12:58:46.805Z,28.00
2022-08-07T13:01:33.520Z,28.20
2022-08-07T13:04:05.043Z,28.10
2022-08-07T13:07:09.308Z,28.20
2022-08-07T13:10:37.646Z,28.30
2022-08-07T13:13:47.254Z,28.10
2022-08-07T13:16:44.383Z,28.00
2022-08-07T13:19:50.658Z,27.70
2022-08-07T13:22:31.403Z,28.10
2022-08-07T13:25:29.854Z,28.10
2022-08-07T13:28:14.341Z,28.50
2022-08-07T13:31:02.036Z,28.90
2022-08-07T13:34:32.697Z,29.10
2022-08-07T13:37:28.036Z,28.80
2022-08-07T13:40:36.405Z,28.40
2022-08-07T13:43:13.657Z,28.50
2022-08-07T13:46:12.454Z,28.50
2022-08-07T13:48:39.296Z,28.40
2022-08-07T13:51:27.329Z,28.50
2022-08-07T13:54:04.121Z,28.60
2022-08-07T13:56:40.868Z,29.00
2022-08-07T13:59:25.493Z,28.90
2022-08-07T14:02:07.647Z,29.10
2022-08-07T14:04:54.612Z,29.20
2022-08-07T14:07:31.839Z,29.20
2022-08-07T14:10:20.503Z,29.30
2022-08-07T14:13:03.753Z,29.50
2022-08-07T14:15:44.833Z,29.60
2022-08-07T14:18:56.725Z,29.60
2022-08-07T14:22:00.921Z,29.60
2022-08-07T14:24:42.634Z,29.50
2022-08-07T14:28:09.372Z,28.90
2022-08-07T14:32:59.921Z,28.50
2022-08-07T14:35:43.049Z,28.30
2022-08-07T14:38:26.807Z,28.40
2022-08-07T14:41:03.946Z,28.40
2022-08-07T14:43:58.741Z,28.50
2022-08-07T14:49:17.376Z,28.50
2022-08-07T14:52:03.212Z,28.60
2022-08-07T14:54:35.900Z,28.80
2022-08-07T14:57:18.811Z,29.00
2022-08-07T15:00:05.709Z,29.00
2022-08-07T15:02:35.199Z,28.90
2022-08-07T15:07:52.795Z,28.30
2022-08-07T15:13:22.406Z,28.30
2022-08-07T15:15:58.039Z,28.30
2022-08-07T15:18:41.606Z,28.30
2022-08-07T15:21:58.395Z,28.50
2022-08-07T15:25:12.960Z,28.70
2022-08-07T15:27:17.844Z,28.90
2022-08-07T15:30:04.384Z,29.20
2022-08-07T15:32:51.086Z,29.10
2022-08-07T15:36:00.759Z,29.00
2022-08-07T15:38:51.866Z,28.40
2022-08-07T15:44:15.347Z,27.80
2022-08-07T15:46:52.087Z,28.00
2022-08-07T15:50:04.119Z,28.10
2022-08-07T15:52:29.620Z,28.30
2022-08-07T15:55:02.269Z,28.30
2022-08-07T15:57:41.129Z,28.30
2022-08-07T16:00:31.938Z,28.00
2022-08-07T16:03:20.945Z,27.70
2022-08-07T16:05:51.019Z,27.70
2022-08-07T16:08:33.333Z,27.70
2022-08-07T16:11:26.326Z,27.70
2022-08-07T16:14:11.947Z,27.70
2022-08-07T16:18:02.639Z,27.70
2022-08-07T16:20:38.777Z,27.80
2022-08-07T16:23:53.947Z,27.90
2022-08-07T16:26:31.126Z,27.80
2022-08-07T16:29:18.427Z,27.70
2022-08-07T16:32:33.209Z,27.80
2022-08-07T16:35:51.579Z,27.70
2022-08-07T16:39:00.614Z,27.60
2022-08-07T16:41:57.192Z,27.60
2022-08-07T16:45:14.690Z,27.60
2022-08-07T16:48:27.619Z,27.60
2022-08-07T16:52:01.893Z,27.50
2022-08-07T16:55:08.509Z,27.30
2022-08-07T16:58:01.863Z,27.10
2022-08-07T17:01:01.337Z,27.10
2022-08-07T17:03:59.547Z,27.10
2022-08-07T17:07:03.024Z,26.90
2022-08-07T17:10:08.284Z,26.80
2022-08-07T17:13:17.945Z,26.70
2022-08-07T17:15:57.154Z,26.70
2022-08-07T17:19:23.966Z,26.70
2022-08-07T17:22:29.982Z,26.70
2022-08-07T17:25:20.193Z,26.70
2022-08-07T17:28:19.578Z,26.50
2022-08-07T17:31:16.020Z,26.50
2022-08-07T17:34:33.027Z,26.40
2022-08-07T17:37:09.851Z,26.30
2022-08-07T17:40:19.069Z,26.20
2022-08-07T17:43:18.180Z,26.20
2022-08-07T17:45:56.467Z,26.10
2022-08-07T17:48:42.339Z,26.10
2022-08-07T17:51:59.882Z,26.00
2022-08-07T17:54:53.488Z,25.90
2022-08-07T17:57:58.939Z,25.80
2022-08-07T18:00:34.756Z,25.70
2022-08-07T18:03:28.722Z,25.60
2022-08-07T18:06:37.046Z,25.50
2022-08-07T18:09:08.626Z,25.40
2022-08-07T18:12:07.731Z,25.40
2022-08-07T18:15:00.910Z,25.40
2022-08-07T18:18:46.315Z,25.40
2022-08-07T18:21:11.033Z,25.30
2022-08-07T18:24:07.502Z,25.30
2022-08-07T18:27:07.274Z,25.30
2022-08-07T18:30:32.691Z,25.20
2022-08-07T18:33:38.785Z,25.20
2022-08-07T18:36:54.360Z,25.10
2022-08-07T18:40:07.536Z,25.20
2022-08-07T18:43:12.059Z,25.10
2022-08-07T18:46:43.232Z,25.10
2022-08-07T18:50:29.915Z,25.00
2022-08-07T18:52:55.109Z,25.00
2022-08-07T18:55:57.367Z,24.90
2022-08-07T18:58:43.034Z,24.80
2022-08-07T19:02:34.050Z,24.80
2022-08-07T19:04:57.495Z,24.80
2022-08-07T19:07:51.664Z,24.70
2022-08-07T19:10:51.596Z,24.70
2022-08-07T19:13:55.455Z,24.60
2022-08-07T19:17:04.989Z,24.60
2022-08-07T19:19:53.839Z,24.50
2022-08-07T19:22:44.817Z,24.40
2022-08-07T19:26:21.894Z,24.40
2022-08-07T19:30:56.917Z,24.30
2022-08-07T19:31:37.072Z,24.30
2022-08-07T19:34:08.676Z,24.30
2022-08-07T19:36:43.679Z,24.10
2022-08-07T19:39:56.514Z,24.10
2022-08-07T19:42:24.636Z,24.00
2022-08-07T19:44:55.467Z,24.00
2022-08-07T19:47:31.156Z,23.90
2022-08-07T19:50:43.643Z,23.80
2022-08-07T19:52:59.201Z,23.60
2022-08-07T19:55:57.834Z,23.30
2022-08-07T19:58:27.965Z,23.00
2022-08-07T20:00:57.615Z,22.70
2022-08-07T20:03:34.145Z,22.50
2022-08-07T20:06:06.928Z,22.30
2022-08-07T20:08:48.838Z,22.00
2022-08-07T20:11:34.232Z,21.80
2022-08-07T20:14:13.528Z,21.60
2022-08-07T20:16:48.353Z,21.50
2022-08-07T20:19:25.177Z,21.30
2022-08-07T20:21:57.827Z,21.20
2022-08-07T20:24:34.393Z,21.10
2022-08-07T20:27:07.371Z,21.00
2022-08-07T20:29:47.872Z,21.00
2022-08-07T20:32:42.767Z,20.90
2022-08-07T20:35:26.258Z,20.80
2022-08-07T20:37:58.901Z,20.80
2022-08-07T20:40:34.588Z,20.60
2022-08-07T20:43:09.620Z,20.50
2022-08-07T20:46:28.048Z,20.50
2022-08-07T20:48:34.652Z,20.40
2022-08-07T20:51:09.605Z,20.40
2022-08-07T20:54:03.196Z,20.30
2022-08-07T20:56:29.518Z,20.30
2022-08-07T20:59:02.149Z,20.30
2022-08-07T21:01:46.024Z,20.30
2022-08-07T21:04:22.216Z,20.10
2022-08-07T21:06:56.818Z,20.10
2022-08-07T21:09:35.401Z,20.20
2022-08-07T21:12:29.148Z,20.20
2022-08-07T21:15:03.832Z,20.10
2022-08-07T21:18:02.674Z,20.00
2022-08-07T21:20:26.862Z,19.80
2022-08-07T21:23:07.354Z,19.60
2022-08-07T21:26:26.957Z,19.60
2022-08-07T21:29:15.681Z,19.50
2022-08-07T21:32:44.057Z,19.50
2022-08-07T21:35:10.800Z,19.40
2022-08-07T21:37:58.324Z,19.30
2022-08-07T21:41:09.560Z,19.30
2022-08-07T21:43:57.475Z,19.30
2022-08-07T21:46:43.608Z,19.20
2022-08-07T21:50:01.100Z,19.10
2022-08-07T21:52:48.065Z,19.00
2022-08-07T21:55:28.171Z,18.90
2022-08-07T21:58:45.759Z,18.80
2022-08-07T22:02:07.174Z,18.90
2022-08-07T22:04:32.013Z,18.90
2022-08-07T22:07:06.818Z,18.80
2022-08-07T22:09:54.117Z,18.70
2022-08-07T22:12:34.950Z,18.60
2022-08-07T22:16:45.175Z,18.60
2022-08-07T22:18:06.488Z,18.60
2022-08-07T22:20:52.772Z,18.60
2022-08-07T22:23:43.663Z,18.50
2022-08-07T22:26:31.004Z,18.50
2022-08-07T22:29:33.884Z,18.40
2022-08-07T22:32:37.079Z,18.40
2022-08-07T22:35:11.270Z,18.30
2022-08-07T22:38:02.931Z,18.20
2022-08-07T22:40:54.770Z,18.20
2022-08-07T22:43:47.460Z,18.10
2022-08-07T22:47:04.431Z,18.10
2022-08-07T22:50:04.293Z,18.10
2022-08-07T22:52:40.301Z,18.00
2022-08-07T22:55:47.509Z,17.90
2022-08-07T22:58:34.399Z,17.90
2022-08-07T23:01:50.355Z,17.80
2022-08-07T23:04:58.221Z,17.70
2022-08-07T23:07:53.035Z,17.60
2022-08-07T23:11:27.119Z,17.70
2022-08-07T23:14:40.743Z,17.70
2022-08-07T23:18:12.564Z,17.60
2022-08-07T23:21:06.601Z,17.60
2022-08-07T23:24:50.643Z,17.60
2022-08-07T23:28:22.773Z,17.50
2022-08-07T23:31:06.685Z,17.50
2022-08-07T23:34:33.888Z,17.50
2022-08-07T23:37:29.248Z,17.30
2022-08-07T23:40:17.923Z,17.20
2022-08-07T23:43:16.664Z,17.10
2022-08-07T23:46:02.299Z,17.00
2022-08-07T23:48:58.982Z,16.90
2022-08-07T23:53:00.257Z,16.80
2022-08-07T23:54:52.783Z,16.70
2022-08-07T23:57:44.259Z,16.60
